createdAt,value
2018-08-16T00:03:39.030Z,100085.33
2018-08-16T00:08:43.769Z,100078.73
2018-08-16T00:13:48.562Z,100078.17
2018-08-16T00:18:53.999Z,100078.57
2018-08-16T00:23:58.919Z,100078.75
2018-08-16T00:29:03.605Z,100065.66
2018-08-16T00:34:08.658Z,100066.34
2018-08-16T00:39:13.367Z,100067.77
2018-08-16T00:44:18.150Z,100062.70
2018-08-16T00:49:23.137Z,100064.23
2018-08-16T00:54:27.824Z,100064.52
2018-08-16T00:59:32.523Z,100067.19
2018-08-16T01:04:37.244Z,100066.05
2018-08-16T01:09:41.983Z,100072.22
2018-08-16T01:14:46.748Z,100060.70
2018-08-16T01:19:51.521Z,100057.60
2018-08-16T01:24:56.268Z,100061.23
2018-08-16T01:30:01.011Z,100062.70
2018-08-16T01:35:07.112Z,100054.75
2018-08-16T01:40:11.754Z,100055.32
2018-08-16T01:45:16.542Z,100051.58
2018-08-16T01:50:21.243Z,100051.15
2018-08-16T01:55:26.029Z,100050.97
2018-08-16T02:00:30.754Z,100045.84
2018-08-16T02:05:35.558Z,100043.07
2018-08-16T02:10:40.295Z,100045.65
2018-08-16T02:15:45.076Z,100038.88
2018-08-16T02:20:49.761Z,100049.51
2018-08-16T02:25:54.499Z,100052.92
2018-08-16T02:30:59.223Z,100051.64
2018-08-16T02:36:04.031Z,100044.41
2018-08-16T02:41:08.712Z,100040.49
2018-08-16T02:46:13.534Z,100038.56
2018-08-16T02:51:18.150Z,100031.91
2018-08-16T02:56:23.132Z,100032.69
2018-08-16T03:01:27.960Z,100035.70
2018-08-16T03:06:32.697Z,100032.83
2018-08-16T03:11:37.432Z,100032.83
2018-08-16T03:16:42.126Z,100016.89
2018-08-16T03:21:46.824Z,100014.80
2018-08-16T03:26:51.525Z,100013.27
2018-08-16T03:31:56.207Z,100009.50
2018-08-16T03:37:00.943Z,100010.48
2018-08-16T03:42:05.995Z,100013.18
2018-08-16T03:47:10.738Z,100013.84
2018-08-16T03:52:15.446Z,100009.62
2018-08-16T03:57:20.327Z,100007.77
2018-08-16T04:02:25.043Z,100010.11
2018-08-16T04:07:29.818Z,100012.03
2018-08-16T04:12:34.439Z,100013.47
2018-08-16T04:17:39.199Z,100013.02
2018-08-16T04:22:43.944Z,100021.41
2018-08-16T04:27:48.871Z,100012.48
2018-08-16T04:32:53.630Z,100023.31
2018-08-16T04:37:58.444Z,100019.90
2018-08-16T04:43:03.057Z,100019.66
2018-08-16T04:48:08.119Z,100012.64
2018-08-16T04:53:12.840Z,100003.02
2018-08-16T04:58:17.659Z,100000.35
2018-08-16T05:03:22.343Z,100010.93
2018-08-16T05:08:26.974Z,100009.79
2018-08-16T05:13:31.655Z,100018.34
2018-08-16T05:18:36.409Z,100021.80
2018-08-16T05:23:41.089Z,100020.03
2018-08-16T05:28:45.759Z,100013.77
2018-08-16T05:33:50.595Z,100017.97
2018-08-16T05:38:55.398Z,100010.61
2018-08-16T05:44:00.051Z,100001.06
2018-08-16T05:49:04.866Z,100012.82
2018-08-16T05:54:09.580Z,100006.34
2018-08-16T05:59:14.196Z,100003.95
2018-08-16T06:04:19.068Z,100006.99
2018-08-16T06:09:23.916Z,100003.19
2018-08-16T06:14:28.808Z,100000.05
2018-08-16T06:19:33.544Z,100004.38
2018-08-16T06:24:38.266Z,99992.23
2018-08-16T06:29:42.981Z,99991.39
2018-08-16T06:34:47.701Z,99987.80
2018-08-16T06:39:52.397Z,99983.03
2018-08-16T06:44:57.037Z,99983.81
2018-08-16T06:50:01.767Z,99977.74
2018-08-16T06:55:08.219Z,99972.27
2018-08-16T07:00:13.178Z,99969.61
2018-08-16T07:05:18.026Z,99959.28
2018-08-16T07:10:22.882Z,99965.52
2018-08-16T07:15:27.867Z,99959.20
2018-08-16T07:20:32.530Z,99954.90
2018-08-16T07:25:37.310Z,99942.14
2018-08-16T07:30:42.014Z,99937.43
2018-08-16T07:35:47.822Z,99929.42
2018-08-16T07:40:52.547Z,99935.58
2018-08-16T07:51:01.253Z,99925.30
2018-08-16T07:56:05.994Z,99922.45
2018-08-16T08:01:10.844Z,99919.06
2018-08-16T08:06:15.581Z,99921.23
2018-08-16T08:11:20.366Z,99915.83
2018-08-16T08:16:25.102Z,99916.23
2018-08-16T08:21:29.905Z,99917.86
2018-08-16T08:26:34.679Z,99911.41
2018-08-16T08:31:39.477Z,99911.02
2018-08-16T08:37:00.971Z,99901.83
2018-08-16T08:42:05.694Z,99887.45
2018-08-16T08:47:10.423Z,99888.53
2018-08-16T08:52:15.118Z,99873.61
2018-08-16T08:57:37.604Z,99870.05
2018-08-16T09:02:42.317Z,99866.55
2018-08-16T09:07:46.980Z,99864.69
2018-08-16T09:14:09.329Z,99851.63
2018-08-16T09:19:14.140Z,99839.46
2018-08-16T09:24:18.921Z,99832.31
2018-08-16T09:30:25.832Z,99827.19
2018-08-16T09:35:30.779Z,99809.32
2018-08-16T09:40:35.500Z,99815.68
2018-08-16T09:46:58.173Z,99806.49
2018-08-16T09:52:03.006Z,99807.22
2018-08-16T09:57:09.181Z,99801.02
2018-08-16T10:02:17.282Z,99795.17
2018-08-16T10:07:21.969Z,99788.83
2018-08-16T10:12:26.680Z,99765.05
2018-08-16T10:17:31.515Z,99764.21
2018-08-16T10:22:36.467Z,99768.12
2018-08-16T10:27:41.198Z,99765.55
2018-08-16T10:32:45.938Z,99760.82
2018-08-16T10:37:50.618Z,99742.59
2018-08-16T10:42:55.333Z,99738.66
2018-08-16T10:48:00.083Z,99731.69
2018-08-16T10:53:04.800Z,99724.17
2018-08-16T10:58:09.580Z,99724.97
2018-08-16T11:03:14.367Z,99718.48
2018-08-16T11:08:19.033Z,99720.45
2018-08-16T11:13:23.732Z,99710.16
2018-08-16T11:18:28.634Z,99710.03
2018-08-16T11:23:33.393Z,99700.36
2018-08-16T11:28:38.114Z,99691.09
2018-08-16T11:33:42.808Z,99682.95
2018-08-16T11:38:47.437Z,99673.05
2018-08-16T11:43:52.096Z,99670.92
2018-08-16T11:48:57.156Z,99661.21
2018-08-16T11:54:01.788Z,99652.48
2018-08-16T11:59:06.576Z,99651.02
2018-08-16T12:04:11.230Z,99641.34
2018-08-16T12:09:15.910Z,99638.69
2018-08-16T12:14:20.588Z,99636.63
2018-08-16T12:19:25.327Z,99634.89
2018-08-16T12:24:29.974Z,99618.22
2018-08-16T12:29:34.912Z,99612.24
2018-08-16T12:34:39.788Z,99601.98
2018-08-16T12:39:44.648Z,99602.66
2018-08-16T12:44:49.626Z,99597.58
2018-08-16T12:49:54.504Z,99579.52
2018-08-16T12:54:59.342Z,99579.84
2018-08-16T13:00:04.645Z,99587.77
2018-08-16T13:05:09.575Z,99569.95
2018-08-16T13:10:14.744Z,99547.77
2018-08-16T13:15:19.724Z,99564.04
2018-08-16T13:20:24.706Z,99560.07
2018-08-16T13:25:29.938Z,99552.69
2018-08-16T13:30:34.781Z,99542.14
2018-08-16T13:35:39.763Z,99540.69
2018-08-16T13:40:44.664Z,99531.91
2018-08-16T13:45:49.488Z,99526.39
2018-08-16T13:50:54.258Z,99515.36
2018-08-16T13:55:59.321Z,99512.47
2018-08-16T14:01:04.245Z,99506.37
2018-08-16T14:06:09.481Z,99502.83
2018-08-16T14:11:14.455Z,99495.37
2018-08-16T14:16:19.241Z,99491.97
2018-08-16T14:21:24.142Z,99485.65
2018-08-16T14:26:28.881Z,99483.08
2018-08-16T14:31:33.650Z,99477.67
2018-08-16T14:36:38.517Z,99474.23
2018-08-16T14:41:43.304Z,99457.75
2018-08-16T14:46:48.117Z,99452.92
2018-08-16T14:51:53.021Z,99452.08
2018-08-16T14:56:57.950Z,99447.58
2018-08-16T15:02:02.827Z,99441.46
2018-08-16T15:07:07.766Z,99443.88
2018-08-16T15:12:12.641Z,99439.13
2018-08-16T15:17:17.438Z,99442.84
2018-08-16T15:22:22.248Z,99437.72
2018-08-16T15:27:27.046Z,99436.78
2018-08-16T15:32:31.924Z,99435.37
2018-08-16T15:37:36.977Z,99422.68
2018-08-16T15:42:41.819Z,99425.83
2018-08-16T15:47:46.683Z,99419.47
2018-08-16T15:52:51.519Z,99421.55
2018-08-16T15:57:56.282Z,99416.00
2018-08-16T16:03:01.302Z,99412.93
2018-08-16T16:08:06.217Z,99411.39
2018-08-16T16:13:11.191Z,99399.27
2018-08-16T16:18:16.023Z,99403.25
2018-08-16T16:23:20.891Z,99390.41
2018-08-16T16:28:25.743Z,99384.13
2018-08-16T16:33:30.734Z,99384.87
2018-08-16T16:38:35.593Z,99383.08
2018-08-16T16:43:40.523Z,99377.63
2018-08-16T16:48:45.409Z,99378.53
2018-08-16T16:53:50.219Z,99375.52
2018-08-16T16:58:55.104Z,99377.23
2018-08-16T17:03:59.907Z,99372.88
2018-08-16T17:09:06.148Z,99377.64
2018-08-16T17:14:11.205Z,99379.53
2018-08-16T17:19:16.007Z,99385.84
2018-08-16T17:24:20.859Z,99378.06
2018-08-16T17:29:25.667Z,99373.56
2018-08-16T17:34:30.473Z,99373.04
2018-08-16T17:39:35.515Z,99374.77
2018-08-16T17:44:40.442Z,99371.34
2018-08-16T17:49:45.212Z,99369.56
2018-08-16T17:54:50.059Z,99370.58
2018-08-16T17:59:55.009Z,99373.94
2018-08-16T18:04:59.980Z,99371.88
2018-08-16T18:10:06.290Z,99371.41
2018-08-16T18:15:12.686Z,99376.77
2018-08-16T18:20:17.606Z,99369.52
2018-08-16T18:25:22.634Z,99377.83
2018-08-16T18:30:28.277Z,99378.78
2018-08-16T18:35:33.230Z,99383.75
2018-08-16T18:40:38.156Z,99393.59
2018-08-16T18:45:43.012Z,99391.00
2018-08-16T18:50:47.839Z,99397.13
2018-08-16T18:55:52.698Z,99405.65
2018-08-16T19:00:57.585Z,99415.78
2018-08-16T19:06:02.420Z,99410.90
2018-08-16T19:11:07.353Z,99413.73
2018-08-16T19:16:12.208Z,99417.14
2018-08-16T19:21:17.134Z,99424.15
2018-08-16T19:26:22.309Z,99432.13
2018-08-16T19:31:27.230Z,99429.20
2018-08-16T19:36:32.184Z,99431.63
2018-08-16T19:41:36.988Z,99431.30
2018-08-16T19:46:41.932Z,99433.26
2018-08-16T19:51:46.801Z,99440.19
2018-08-16T19:56:51.599Z,99429.02
2018-08-16T20:01:56.513Z,99426.20
2018-08-16T20:07:01.472Z,99437.69
2018-08-16T20:12:06.436Z,99430.05
2018-08-16T20:17:11.370Z,99427.56
2018-08-16T20:22:19.287Z,99421.98
2018-08-16T20:27:24.141Z,99429.81
2018-08-16T20:32:29.107Z,99434.53
2018-08-16T20:37:34.220Z,99441.30
2018-08-16T20:42:39.154Z,99447.59
2018-08-16T20:47:43.999Z,99439.84
2018-08-16T20:52:49.089Z,99453.07
2018-08-16T20:57:54.057Z,99454.52
2018-08-16T21:02:59.024Z,99456.35
2018-08-16T21:08:03.970Z,99460.28
2018-08-16T21:13:08.847Z,99464.52
2018-08-16T21:18:13.767Z,99464.82
2018-08-16T21:23:18.725Z,99468.79
2018-08-16T21:28:23.574Z,99471.34
2018-08-16T21:33:28.356Z,99466.16
2018-08-16T21:38:33.243Z,99467.37
2018-08-16T21:43:38.184Z,99474.23
2018-08-16T21:48:43.115Z,99476.13
2018-08-16T21:53:47.869Z,99475.92
2018-08-16T21:58:52.803Z,99483.81
2018-08-16T22:03:57.731Z,99481.41
2018-08-16T22:09:02.760Z,99482.78
2018-08-16T22:14:07.551Z,99477.38
2018-08-16T22:19:12.394Z,99475.45
2018-08-16T22:24:17.222Z,99475.72
2018-08-16T22:29:22.082Z,99477.13
2018-08-16T22:34:27.009Z,99480.42
2018-08-16T22:39:31.907Z,99482.05
2018-08-16T22:44:36.934Z,99485.88
2018-08-16T22:49:41.767Z,99477.14
2018-08-16T22:54:46.709Z,99483.14
2018-08-16T22:59:51.601Z,99476.61
2018-08-16T23:04:56.449Z,99473.33
2018-08-16T23:10:01.280Z,99473.07
2018-08-16T23:15:07.322Z,99474.13
2018-08-16T23:20:12.242Z,99477.65
2018-08-16T23:25:17.203Z,99469.44
2018-08-16T23:30:22.134Z,99466.44
2018-08-16T23:35:26.963Z,99474.06
2018-08-16T23:40:31.936Z,99477.86
2018-08-16T23:45:36.790Z,99476.48
2018-08-16T23:50:41.604Z,99479.48
2018-08-16T23:55:46.452Z,99476.45
